createdAt,value
2022-12-23T00:00:17.361Z,21.35
2022-12-23T00:01:21.444Z,21.34
2022-12-23T00:02:25.609Z,21.34
2022-12-23T00:03:30.227Z,21.33
2022-12-23T00:04:35.007Z,21.32
2022-12-23T00:05:39.126Z,21.32
2022-12-23T00:06:43.367Z,21.32
2022-12-23T00:07:47.507Z,21.33
2022-12-23T00:08:51.715Z,21.31
2022-12-23T00:09:55.820Z,21.3
2022-12-23T00:10:59.970Z,21.3
2022-12-23T00:12:04.084Z,21.32
2022-12-23T00:13:08.192Z,21.31
2022-12-23T00:14:18.413Z,21.31
2022-12-23T00:15:25.373Z,21.31
2022-12-23T00:16:29.557Z,21.31
2022-12-23T00:17:33.888Z,21.3
2022-12-23T00:18:37.984Z,21.29
2022-12-23T00:19:43.213Z,21.27
2022-12-23T00:20:47.349Z,21.28
2022-12-23T00:21:51.458Z,21.28
2022-12-23T00:22:55.551Z,21.26
2022-12-23T00:23:59.685Z,21.27
2022-12-23T00:25:03.844Z,21.27
2022-12-23T00:26:07.964Z,21.26
2022-12-23T00:27:12.057Z,21.26
2022-12-23T00:28:16.156Z,21.26
2022-12-23T00:29:20.351Z,21.25
2022-12-23T00:30:24.481Z,21.25
2022-12-23T00:31:28.680Z,21.23
2022-12-23T00:32:33.026Z,21.22
2022-12-23T00:33:37.155Z,21.21
2022-12-23T00:34:41.308Z,21.21
2022-12-23T00:35:45.439Z,21.22
2022-12-23T00:36:50.184Z,21.19
2022-12-23T00:37:54.334Z,21.2
2022-12-23T00:38:58.419Z,21.2
2022-12-23T00:40:06.382Z,21.2
2022-12-23T00:41:10.845Z,21.19
2022-12-23T00:42:15.018Z,21.19
2022-12-23T00:43:19.132Z,21.19
2022-12-23T00:44:23.263Z,21.18
2022-12-23T00:45:27.417Z,21.19
2022-12-23T00:46:31.946Z,21.18
2022-12-23T00:47:36.169Z,21.15
2022-12-23T00:48:40.289Z,21.16
2022-12-23T00:49:44.436Z,21.16
2022-12-23T00:50:48.753Z,21.14
2022-12-23T00:51:53.151Z,21.14
2022-12-23T00:52:57.295Z,21.16
2022-12-23T00:54:01.427Z,21.14
2022-12-23T00:55:05.542Z,21.12
2022-12-23T00:56:09.661Z,21.12
2022-12-23T00:57:13.795Z,21.13
2022-12-23T00:58:17.916Z,21.12
2022-12-23T00:59:22.028Z,21.12
2022-12-23T01:00:26.132Z,21.11
2022-12-23T01:01:30.510Z,21.11
2022-12-23T01:02:35.279Z,21.1
2022-12-23T01:03:39.729Z,21.1
2022-12-23T01:04:44.064Z,21.1
2022-12-23T01:05:48.187Z,21.11
2022-12-23T01:06:52.305Z,21.08
2022-12-23T01:07:56.404Z,21.08
2022-12-23T01:09:00.542Z,21.1
2022-12-23T01:10:04.812Z,21.09
2022-12-23T01:11:08.922Z,21.09
2022-12-23T01:12:13.155Z,21.07
2022-12-23T01:13:17.300Z,21.07
2022-12-23T01:14:21.397Z,21.06
2022-12-23T01:15:25.514Z,21.06
2022-12-23T01:16:29.758Z,21.07
2022-12-23T01:17:34.116Z,21.06
2022-12-23T01:18:38.226Z,21.04
2022-12-23T01:19:42.325Z,21.05
2022-12-23T01:20:46.417Z,21.03
2022-12-23T01:21:50.518Z,21.03
2022-12-23T01:22:54.633Z,21.04
2022-12-23T01:23:58.733Z,21.04
2022-12-23T01:25:02.886Z,21.04
2022-12-23T01:26:06.982Z,21.04
2022-12-23T01:27:11.125Z,21.01
2022-12-23T01:28:15.247Z,21
2022-12-23T01:29:19.346Z,21.01
2022-12-23T01:30:23.448Z,21
2022-12-23T01:31:27.675Z,20.99
2022-12-23T01:32:31.986Z,20.98
2022-12-23T01:33:36.091Z,21
2022-12-23T01:34:40.242Z,20.97
2022-12-23T01:35:44.378Z,20.98
2022-12-23T01:36:48.500Z,20.98
2022-12-23T01:37:52.730Z,20.98
2022-12-23T01:38:56.837Z,20.98
2022-12-23T01:40:00.964Z,20.96
2022-12-23T01:41:05.136Z,20.97
2022-12-23T01:42:09.249Z,20.97
2022-12-23T01:43:13.355Z,20.95
2022-12-23T01:44:17.489Z,20.94
2022-12-23T01:45:21.644Z,20.96
2022-12-23T01:46:25.867Z,20.94
2022-12-23T01:47:30.311Z,20.95
2022-12-23T01:48:34.414Z,20.95
2022-12-23T01:49:38.525Z,20.93
2022-12-23T01:50:42.641Z,20.94
2022-12-23T01:51:46.835Z,20.94
2022-12-23T01:52:51.021Z,20.93
2022-12-23T01:53:55.151Z,20.93
2022-12-23T01:54:59.263Z,20.93
2022-12-23T01:56:03.418Z,20.9
2022-12-23T01:57:07.520Z,20.92
2022-12-23T01:58:11.637Z,20.92
2022-12-23T01:59:15.746Z,20.9
2022-12-23T02:00:19.850Z,20.91
2022-12-23T02:01:24.055Z,20.91
2022-12-23T02:02:28.734Z,20.89
2022-12-23T02:03:33.403Z,20.9
2022-12-23T02:04:37.654Z,20.88
2022-12-23T02:05:41.791Z,20.9
2022-12-23T02:06:45.891Z,20.89
2022-12-23T02:07:50.017Z,20.86
2022-12-23T02:08:54.166Z,20.88
2022-12-23T02:09:58.286Z,20.86
2022-12-23T02:11:02.424Z,20.85
2022-12-23T02:12:06.541Z,20.87
2022-12-23T02:13:10.803Z,20.85
2022-12-23T02:14:14.918Z,20.85
2022-12-23T02:15:19.029Z,20.87
2022-12-23T02:16:23.183Z,20.87
2022-12-23T02:17:27.444Z,20.84
2022-12-23T02:18:31.531Z,20.84
2022-12-23T02:19:35.699Z,20.84
2022-12-23T02:20:39.790Z,20.83
2022-12-23T02:21:43.912Z,20.83
2022-12-23T02:22:48.294Z,20.82
2022-12-23T02:23:52.394Z,20.82
2022-12-23T02:24:56.492Z,20.82
2022-12-23T02:26:00.597Z,20.82
2022-12-23T02:27:04.746Z,20.81
2022-12-23T02:28:08.904Z,20.79
2022-12-23T02:29:13.049Z,20.81
2022-12-23T02:30:17.144Z,20.79
2022-12-23T02:31:21.346Z,20.8
2022-12-23T02:32:25.787Z,20.78
2022-12-23T02:33:30.030Z,20.79
2022-12-23T02:34:34.153Z,20.78
2022-12-23T02:35:38.273Z,20.75
2022-12-23T02:36:42.361Z,20.78
2022-12-23T02:37:46.488Z,20.75
2022-12-23T02:38:50.592Z,20.77
2022-12-23T02:39:54.711Z,20.75
2022-12-23T02:40:58.807Z,20.74
2022-12-23T02:42:02.930Z,20.76
2022-12-23T02:43:07.063Z,20.74
2022-12-23T02:44:11.157Z,20.75
2022-12-23T02:45:15.260Z,20.75
2022-12-23T02:46:19.397Z,20.75
2022-12-23T02:47:23.680Z,20.75
2022-12-23T02:48:27.819Z,20.75
2022-12-23T02:49:31.922Z,20.74
2022-12-23T02:50:36.023Z,20.74
2022-12-23T02:51:40.105Z,20.71
2022-12-23T02:52:44.195Z,20.74
2022-12-23T02:53:48.303Z,20.73
2022-12-23T02:54:52.424Z,20.73
2022-12-23T02:55:56.554Z,20.71
2022-12-23T02:57:00.664Z,20.72
2022-12-23T02:58:04.762Z,20.7
2022-12-23T02:59:08.901Z,20.71
2022-12-23T03:00:13.012Z,20.71
2022-12-23T03:01:17.184Z,20.68
2022-12-23T03:02:21.639Z,20.7
2022-12-23T03:03:26.479Z,20.7
2022-12-23T03:04:30.718Z,20.7
2022-12-23T03:05:34.814Z,20.67
2022-12-23T03:06:39.177Z,20.69
2022-12-23T03:07:43.321Z,20.68
2022-12-23T03:08:47.438Z,20.66
2022-12-23T03:09:51.568Z,20.68
2022-12-23T03:10:55.683Z,20.65
2022-12-23T03:11:59.808Z,20.68
2022-12-23T03:13:03.939Z,20.67
2022-12-23T03:14:08.100Z,20.65
2022-12-23T03:15:12.206Z,20.67
2022-12-23T03:16:16.367Z,20.65
2022-12-23T03:17:20.717Z,20.67
2022-12-23T03:18:24.826Z,20.67
2022-12-23T03:19:28.938Z,20.64
2022-12-23T03:20:33.037Z,20.67
2022-12-23T03:21:37.164Z,20.64
2022-12-23T03:22:41.346Z,20.63
2022-12-23T03:23:48.084Z,20.65
2022-12-23T03:24:58.702Z,20.61
2022-12-23T03:26:02.893Z,20.63
2022-12-23T03:27:06.999Z,20.62
2022-12-23T03:28:11.106Z,20.64
2022-12-23T03:29:15.240Z,20.61
2022-12-23T03:30:19.402Z,20.63
2022-12-23T03:31:23.591Z,20.61
2022-12-23T03:32:28.058Z,20.62
2022-12-23T03:33:32.176Z,20.62
2022-12-23T03:34:36.358Z,20.59
2022-12-23T03:35:40.496Z,20.59
2022-12-23T03:36:44.593Z,20.6
2022-12-23T03:37:48.683Z,20.58
2022-12-23T03:38:52.802Z,20.61
2022-12-23T03:39:56.906Z,20.6
2022-12-23T03:41:00.990Z,20.62
2022-12-23T03:42:05.083Z,20.62
2022-12-23T03:43:09.252Z,20.68
2022-12-23T03:44:13.348Z,20.72
2022-12-23T03:45:37.885Z,20.74
2022-12-23T03:46:44.564Z,20.84
2022-12-23T03:47:48.793Z,20.88
2022-12-23T03:48:52.879Z,20.91
2022-12-23T03:49:56.979Z,20.95
2022-12-23T03:51:01.083Z,21
2022-12-23T03:52:05.200Z,21.03
2022-12-23T03:53:09.304Z,21.07
2022-12-23T03:54:13.385Z,21.11
2022-12-23T03:55:17.483Z,21.11
2022-12-23T03:56:21.591Z,21.12
2022-12-23T03:57:25.696Z,21.17
2022-12-23T03:58:29.824Z,21.19
2022-12-23T03:59:33.927Z,21.21
2022-12-23T04:00:38.024Z,21.18
2022-12-23T04:01:42.227Z,21.24
2022-12-23T04:02:46.833Z,21.24
2022-12-23T04:03:51.418Z,21.29
2022-12-23T04:04:55.687Z,21.33
2022-12-23T04:05:59.868Z,21.35
2022-12-23T04:07:03.973Z,21.36
2022-12-23T04:08:08.076Z,21.4
2022-12-23T04:09:15.428Z,21.42
2022-12-23T04:10:25.593Z,21.47
2022-12-23T04:11:29.684Z,21.49
2022-12-23T04:12:33.889Z,21.47
2022-12-23T04:13:37.987Z,21.54
2022-12-23T04:14:42.121Z,21.53
2022-12-23T04:15:46.305Z,21.58
2022-12-23T04:16:50.540Z,21.59
2022-12-23T04:17:54.667Z,21.63
2022-12-23T04:18:58.766Z,21.67
2022-12-23T04:20:02.923Z,21.67
2022-12-23T04:21:07.039Z,21.64
2022-12-23T04:22:11.197Z,21.66
2022-12-23T04:23:15.311Z,21.66
2022-12-23T04:24:19.430Z,21.72
2022-12-23T04:25:23.531Z,21.79
2022-12-23T04:26:27.640Z,21.81
2022-12-23T04:27:31.750Z,21.84
2022-12-23T04:28:35.852Z,21.84
2022-12-23T04:29:39.961Z,21.93
2022-12-23T04:30:45.000Z,21.92
2022-12-23T04:31:49.205Z,21.91
2022-12-23T04:32:53.505Z,21.94
2022-12-23T04:33:57.630Z,21.98
2022-12-23T04:35:01.759Z,22
2022-12-23T04:36:05.900Z,22.01
2022-12-23T04:37:09.997Z,21.98
2022-12-23T04:38:14.144Z,21.98
2022-12-23T04:39:18.297Z,21.97
2022-12-23T04:40:22.484Z,21.97
2022-12-23T04:41:26.622Z,21.94
2022-12-23T04:42:30.730Z,21.94
2022-12-23T04:43:34.847Z,21.91
2022-12-23T04:44:38.936Z,21.88
2022-12-23T04:45:43.033Z,21.81
2022-12-23T04:46:47.238Z,21.82
2022-12-23T04:47:51.657Z,21.81
2022-12-23T04:48:55.783Z,21.83
2022-12-23T04:49:59.891Z,21.84
2022-12-23T04:51:04.011Z,21.85
2022-12-23T04:52:08.195Z,21.86
2022-12-23T04:53:12.468Z,21.9
2022-12-23T04:54:16.642Z,21.92
2022-12-23T04:55:20.759Z,21.96
2022-12-23T04:56:24.849Z,21.93
2022-12-23T04:57:28.953Z,21.99
2022-12-23T04:58:33.068Z,22.04
2022-12-23T04:59:37.185Z,22.06
2022-12-23T05:00:41.324Z,22.07
2022-12-23T05:01:45.740Z,22.09
2022-12-23T05:02:50.608Z,22.12
2022-12-23T05:03:55.357Z,22.15
2022-12-23T05:04:59.511Z,22.19
2022-12-23T05:06:03.699Z,22.21
2022-12-23T05:07:07.819Z,22.23
2022-12-23T05:08:11.910Z,22.27
2022-12-23T05:09:16.016Z,22.28
2022-12-23T05:10:20.161Z,22.26
2022-12-23T05:11:24.267Z,22.24
2022-12-23T05:12:28.411Z,22.21
2022-12-23T05:13:32.502Z,22.2
2022-12-23T05:14:36.638Z,22.19
2022-12-23T05:15:40.792Z,22.2
2022-12-23T05:16:45.026Z,22.14
2022-12-23T05:17:49.370Z,22.17
2022-12-23T05:18:53.590Z,22.17
2022-12-23T05:19:57.737Z,22.15
2022-12-23T05:21:01.874Z,22.11
2022-12-23T05:22:05.988Z,22.08
2022-12-23T05:23:10.104Z,22.13
2022-12-23T05:24:14.190Z,22.11
2022-12-23T05:25:18.329Z,22.13
2022-12-23T05:26:22.498Z,22.13
2022-12-23T05:27:26.673Z,22.19
2022-12-23T05:28:30.758Z,22.23
2022-12-23T05:29:34.863Z,22.25
2022-12-23T05:30:38.978Z,22.28
2022-12-23T05:31:43.173Z,22.33
2022-12-23T05:32:47.621Z,22.32
2022-12-23T05:33:51.859Z,22.34
2022-12-23T05:34:56.368Z,22.35
2022-12-23T05:36:00.491Z,22.36
2022-12-23T05:37:04.632Z,22.39
2022-12-23T05:38:08.749Z,22.39
2022-12-23T05:39:12.876Z,22.41
2022-12-23T05:40:19.982Z,22.37
2022-12-23T05:41:36.288Z,22.34
2022-12-23T05:42:40.434Z,22.28
2022-12-23T05:43:44.622Z,22.28
2022-12-23T05:44:48.724Z,22.27
2022-12-23T05:45:52.943Z,22.28
2022-12-23T05:46:57.257Z,22.22
2022-12-23T05:48:01.419Z,22.24
2022-12-23T05:49:05.527Z,22.22
2022-12-23T05:50:09.630Z,22.19
2022-12-23T05:51:13.781Z,22.16
2022-12-23T05:52:17.918Z,22.15
2022-12-23T05:53:22.073Z,22.14
2022-12-23T05:54:26.191Z,22.1
2022-12-23T05:55:30.315Z,22.12
2022-12-23T05:56:34.424Z,22.1
2022-12-23T05:57:39.474Z,22.1
2022-12-23T05:58:44.258Z,22.07
2022-12-23T05:59:48.377Z,22.06
2022-12-23T06:00:52.472Z,22.03
2022-12-23T06:01:56.698Z,22
2022-12-23T06:03:01.622Z,21.98
2022-12-23T06:04:06.651Z,22.01
2022-12-23T06:05:11.450Z,21.98
2022-12-23T06:06:15.573Z,21.96
2022-12-23T06:07:19.692Z,21.94
2022-12-23T06:08:23.827Z,21.94
2022-12-23T06:09:27.960Z,21.93
2022-12-23T06:10:32.171Z,21.92
2022-12-23T06:11:36.276Z,21.9
2022-12-23T06:12:40.395Z,21.89
2022-12-23T06:13:44.502Z,21.89
2022-12-23T06:14:48.611Z,21.86
2022-12-23T06:15:52.717Z,21.85
2022-12-23T06:16:56.907Z,21.84
2022-12-23T06:18:01.295Z,21.83
2022-12-23T06:19:05.428Z,21.81
2022-12-23T06:20:12.170Z,21.78
2022-12-23T06:21:24.231Z,21.77
2022-12-23T06:22:28.322Z,21.78
2022-12-23T06:23:32.494Z,21.74
2022-12-23T06:24:36.582Z,21.74
2022-12-23T06:25:40.719Z,21.74
2022-12-23T06:26:44.842Z,21.73
2022-12-23T06:27:51.013Z,21.72
2022-12-23T06:28:55.114Z,21.71
2022-12-23T06:29:59.212Z,21.7
2022-12-23T06:31:03.357Z,21.68
2022-12-23T06:32:07.597Z,21.66
2022-12-23T06:33:11.903Z,21.65
2022-12-23T06:34:16.015Z,21.65
2022-12-23T06:35:20.186Z,21.62
2022-12-23T06:36:24.343Z,21.64
2022-12-23T06:37:28.463Z,21.64
2022-12-23T06:38:32.593Z,21.6
2022-12-23T06:39:36.695Z,21.61
2022-12-23T06:40:40.815Z,21.6
2022-12-23T06:41:44.973Z,21.6
2022-12-23T06:42:49.072Z,21.59
2022-12-23T06:43:54.499Z,21.59
2022-12-23T06:44:58.810Z,21.58
2022-12-23T06:46:02.988Z,21.57
2022-12-23T06:47:07.327Z,21.56
2022-12-23T06:48:11.429Z,21.55
2022-12-23T06:49:15.532Z,21.54
2022-12-23T06:50:19.673Z,21.53
2022-12-23T06:51:23.794Z,21.52
2022-12-23T06:52:27.937Z,21.52
2022-12-23T06:53:32.044Z,21.51
2022-12-23T06:54:36.141Z,21.49
2022-12-23T06:55:40.242Z,21.5
2022-12-23T06:56:44.370Z,21.48
2022-12-23T06:57:48.477Z,21.49
2022-12-23T06:58:52.606Z,21.48
2022-12-23T06:59:56.727Z,21.48
2022-12-23T07:01:00.976Z,21.48
2022-12-23T07:02:05.422Z,21.46
2022-12-23T07:03:10.269Z,21.44
2022-12-23T07:04:14.849Z,21.45
2022-12-23T07:05:18.981Z,21.45
2022-12-23T07:06:23.081Z,21.44
2022-12-23T07:07:27.324Z,21.41
2022-12-23T07:08:31.465Z,21.4
2022-12-23T07:09:35.574Z,21.4
2022-12-23T07:10:39.686Z,21.39
2022-12-23T07:11:43.818Z,21.39
2022-12-23T07:12:50.813Z,21.4
2022-12-23T07:13:55.211Z,21.4
2022-12-23T07:14:59.387Z,21.37
2022-12-23T07:16:03.541Z,21.38
2022-12-23T07:17:07.826Z,21.38
2022-12-23T07:18:12.246Z,21.37
2022-12-23T07:19:16.357Z,21.37
2022-12-23T07:20:20.504Z,21.35
2022-12-23T07:21:28.824Z,21.35
2022-12-23T07:22:33.801Z,21.34
2022-12-23T07:23:38.699Z,21.33
2022-12-23T07:24:42.825Z,21.31
2022-12-23T07:25:46.930Z,21.31
2022-12-23T07:26:51.034Z,21.31
2022-12-23T07:27:55.141Z,21.32
2022-12-23T07:28:59.285Z,21.31
2022-12-23T07:30:03.413Z,21.3
2022-12-23T07:31:07.605Z,21.28
2022-12-23T07:32:11.945Z,21.29
2022-12-23T07:33:16.260Z,21.29
2022-12-23T07:34:20.382Z,21.28
2022-12-23T07:35:24.525Z,21.15
2022-12-23T07:36:28.654Z,21.27
2022-12-23T07:37:32.766Z,21.24
2022-12-23T07:38:36.867Z,21.25
2022-12-23T07:39:41.001Z,21.26
2022-12-23T07:40:45.156Z,21.25
2022-12-23T07:41:52.745Z,21.23
2022-12-23T07:43:58.305Z,21.23
2022-12-23T07:45:02.428Z,21.22
2022-12-23T07:46:06.675Z,21.21
2022-12-23T07:47:11.028Z,21.23
2022-12-23T07:48:15.163Z,21.2
2022-12-23T07:49:19.306Z,21.2
2022-12-23T07:50:23.406Z,21.21
2022-12-23T07:51:27.532Z,21.21
2022-12-23T07:52:31.774Z,21.2
2022-12-23T07:53:35.892Z,21.2
2022-12-23T07:54:40.064Z,21.2
2022-12-23T07:55:44.161Z,21.17
2022-12-23T07:56:52.330Z,21.16
2022-12-23T07:57:56.554Z,21.18
2022-12-23T07:59:01.155Z,21.17
2022-12-23T08:00:05.257Z,21.17
2022-12-23T08:01:09.374Z,21.16
2022-12-23T08:02:13.873Z,21.16
2022-12-23T08:03:18.675Z,21.16
2022-12-23T08:04:23.373Z,21.15
2022-12-23T08:05:27.694Z,21.14
2022-12-23T08:06:32.043Z,21.14
2022-12-23T08:07:36.167Z,21.11
2022-12-23T08:08:40.333Z,21.13
2022-12-23T08:09:44.442Z,21.13
2022-12-23T08:10:48.755Z,21.12
2022-12-23T08:11:52.890Z,21.11
2022-12-23T08:12:56.983Z,21.11
2022-12-23T08:14:03.112Z,21.1
2022-12-23T08:15:07.273Z,21.1
2022-12-23T08:16:11.444Z,21.1
2022-12-23T08:17:15.840Z,21.1
2022-12-23T08:18:20.196Z,21.08
2022-12-23T08:19:24.316Z,21.09
2022-12-23T08:20:28.440Z,21.09
2022-12-23T08:21:32.749Z,21.07
2022-12-23T08:22:36.853Z,21.08
2022-12-23T08:23:40.998Z,21.06
2022-12-23T08:24:45.112Z,21.07
2022-12-23T08:25:49.268Z,21.06
2022-12-23T08:26:53.370Z,21.06
2022-12-23T08:27:57.475Z,21.06
2022-12-23T08:29:01.599Z,21.07
2022-12-23T08:30:05.794Z,21.04
2022-12-23T08:31:09.999Z,21.04
2022-12-23T08:32:14.400Z,21.03
2022-12-23T08:33:18.531Z,21.04
2022-12-23T08:34:22.690Z,21.03
2022-12-23T08:35:26.821Z,21.03
2022-12-23T08:36:30.916Z,21.03
2022-12-23T08:37:35.038Z,21
2022-12-23T08:38:39.151Z,21.02
2022-12-23T08:39:44.026Z,21.01
2022-12-23T08:40:48.172Z,21.01
2022-12-23T08:41:52.320Z,21.01
2022-12-23T08:42:56.445Z,20.99
2022-12-23T08:44:00.549Z,21
2022-12-23T08:45:04.702Z,20.98
2022-12-23T08:46:08.860Z,20.99
2022-12-23T08:47:13.117Z,20.99
2022-12-23T08:48:17.285Z,20.99
2022-12-23T08:49:21.400Z,20.99
2022-12-23T08:50:25.521Z,20.99
2022-12-23T08:51:29.709Z,20.78
2022-12-23T08:52:33.884Z,20.96
2022-12-23T08:53:38.659Z,20.94
2022-12-23T08:54:43.361Z,20.97
2022-12-23T08:55:47.489Z,20.94
2022-12-23T08:56:51.631Z,20.95
2022-12-23T08:57:55.749Z,20.96
2022-12-23T08:58:59.852Z,20.93
2022-12-23T09:00:03.948Z,20.95
2022-12-23T09:01:08.117Z,20.93
2022-12-23T09:02:12.514Z,20.93
2022-12-23T09:03:17.464Z,20.94
2022-12-23T09:04:21.990Z,20.94
2022-12-23T09:05:26.168Z,20.92
2022-12-23T09:06:30.660Z,20.93
2022-12-23T09:07:34.824Z,20.93
2022-12-23T09:08:38.956Z,20.92
2022-12-23T09:09:43.123Z,20.9
2022-12-23T09:10:47.223Z,20.92
2022-12-23T09:11:51.340Z,20.91
2022-12-23T09:12:57.935Z,20.9
2022-12-23T09:14:02.298Z,20.89
2022-12-23T09:15:06.474Z,20.89
2022-12-23T09:16:10.683Z,20.9
2022-12-23T09:17:15.075Z,20.89
2022-12-23T09:18:19.267Z,20.87
2022-12-23T09:19:23.412Z,20.89
2022-12-23T09:20:27.494Z,20.87
2022-12-23T09:21:31.617Z,20.89
2022-12-23T09:22:35.883Z,20.88
2022-12-23T09:23:40.013Z,20.68
2022-12-23T09:24:44.124Z,20.88
2022-12-23T09:25:48.238Z,20.88
2022-12-23T09:26:52.340Z,20.86
2022-12-23T09:27:56.720Z,20.87
2022-12-23T09:29:01.724Z,20.87
2022-12-23T09:30:05.877Z,20.85
2022-12-23T09:31:10.101Z,20.87
2022-12-23T09:32:14.623Z,20.87
2022-12-23T09:33:18.740Z,20.87
2022-12-23T09:34:22.870Z,20.85
2022-12-23T09:35:26.977Z,20.86
2022-12-23T09:36:31.129Z,20.84
2022-12-23T09:37:35.267Z,20.86
2022-12-23T09:38:39.387Z,20.83
2022-12-23T09:39:43.803Z,20.84
2022-12-23T09:40:47.992Z,20.85
2022-12-23T09:41:52.255Z,20.84
2022-12-23T09:42:56.345Z,20.84
2022-12-23T09:44:00.500Z,20.83
2022-12-23T09:45:04.724Z,20.81
2022-12-23T09:46:08.902Z,20.82
2022-12-23T09:47:13.124Z,20.81
2022-12-23T09:48:17.256Z,20.81
2022-12-23T09:49:21.381Z,20.81
2022-12-23T09:50:25.532Z,20.8
2022-12-23T09:51:29.650Z,20.78
2022-12-23T09:52:33.801Z,20.8
2022-12-23T09:53:37.945Z,20.78
2022-12-23T09:54:42.060Z,20.79
2022-12-23T09:55:46.158Z,20.78
2022-12-23T09:56:51.060Z,20.77
2022-12-23T09:57:55.188Z,20.78
2022-12-23T09:58:59.315Z,20.77
2022-12-23T10:00:03.469Z,20.79
2022-12-23T10:01:07.598Z,20.78
2022-12-23T10:02:11.917Z,20.79
2022-12-23T10:03:16.680Z,20.79
2022-12-23T10:04:21.519Z,20.76
2022-12-23T10:05:26.040Z,20.77
2022-12-23T10:06:30.149Z,20.75
2022-12-23T10:07:34.278Z,20.75
2022-12-23T10:08:38.410Z,20.75
2022-12-23T10:09:42.513Z,20.73
2022-12-23T10:10:46.686Z,20.75
2022-12-23T10:11:50.988Z,20.73
2022-12-23T10:12:55.093Z,20.74
2022-12-23T10:13:59.196Z,20.74
2022-12-23T10:15:03.360Z,20.73
2022-12-23T10:16:07.583Z,20.73
2022-12-23T10:17:12.068Z,20.73
2022-12-23T10:18:16.146Z,20.73
2022-12-23T10:19:20.406Z,20.71
2022-12-23T10:20:24.573Z,20.71
2022-12-23T10:21:28.684Z,20.73
2022-12-23T10:22:32.780Z,20.73
2022-12-23T10:23:36.913Z,20.72
2022-12-23T10:24:41.139Z,20.7
2022-12-23T10:25:45.254Z,20.71
2022-12-23T10:26:49.391Z,20.68
2022-12-23T10:27:53.505Z,20.7
2022-12-23T10:28:57.599Z,20.71
2022-12-23T10:30:14.127Z,20.72
2022-12-23T10:32:33.419Z,20.73
2022-12-23T10:33:37.871Z,20.73
2022-12-23T10:34:41.982Z,20.73
2022-12-23T10:35:46.070Z,20.73
2022-12-23T10:36:50.247Z,20.73
2022-12-23T10:37:55.491Z,20.73
2022-12-23T10:38:59.599Z,20.71
2022-12-23T10:40:03.723Z,20.73
2022-12-23T10:41:09.332Z,20.73
2022-12-23T10:42:13.927Z,20.73
2022-12-23T10:43:18.087Z,20.73
2022-12-23T10:44:22.191Z,20.73
2022-12-23T10:45:26.299Z,20.72
2022-12-23T10:46:30.457Z,20.72
2022-12-23T10:47:34.717Z,20.72
2022-12-23T10:48:39.101Z,20.72
2022-12-23T10:49:43.467Z,20.71
2022-12-23T10:50:47.566Z,20.71
2022-12-23T10:51:52.078Z,20.7
2022-12-23T10:52:56.350Z,20.71
2022-12-23T10:54:00.484Z,20.71
2022-12-23T10:55:04.598Z,20.71
2022-12-23T10:56:08.744Z,20.69
2022-12-23T10:57:12.913Z,20.68
2022-12-23T10:58:17.022Z,20.7
2022-12-23T10:59:21.123Z,20.69
2022-12-23T11:00:25.240Z,20.7
2022-12-23T11:01:29.648Z,20.69
2022-12-23T11:02:34.645Z,20.68
2022-12-23T11:03:39.734Z,20.69
2022-12-23T11:04:44.034Z,20.69
2022-12-23T11:05:48.150Z,20.69
2022-12-23T11:07:04.993Z,20.7
2022-12-23T11:08:48.581Z,20.68
2022-12-23T11:09:52.768Z,20.68
2022-12-23T11:10:56.885Z,20.68
2022-12-23T11:12:01.060Z,20.66
2022-12-23T11:13:05.333Z,20.69
2022-12-23T11:14:09.486Z,20.67
2022-12-23T11:15:13.650Z,20.68
2022-12-23T11:16:17.847Z,20.65
2022-12-23T11:17:22.247Z,20.65
2022-12-23T11:18:26.396Z,20.67
2022-12-23T11:19:30.515Z,20.67
2022-12-23T11:20:34.650Z,20.66
2022-12-23T11:21:38.813Z,20.68
2022-12-23T11:22:43.414Z,20.66
2022-12-23T11:23:47.563Z,20.67
2022-12-23T11:24:52.260Z,20.67
2022-12-23T11:25:56.531Z,20.71
2022-12-23T11:27:00.669Z,20.71
2022-12-23T11:28:04.795Z,20.73
2022-12-23T11:29:08.927Z,20.75
2022-12-23T11:30:13.019Z,20.74
2022-12-23T11:31:17.356Z,20.77
2022-12-23T11:32:21.637Z,20.81
2022-12-23T11:33:25.753Z,20.83
2022-12-23T11:34:29.940Z,20.85
2022-12-23T11:35:34.073Z,20.88
2022-12-23T11:36:38.887Z,20.92
2022-12-23T11:37:43.525Z,20.94
2022-12-23T11:38:47.646Z,20.96
2022-12-23T11:39:52.276Z,20.96
2022-12-23T11:40:56.485Z,20.96
2022-12-23T11:42:00.622Z,20.97
2022-12-23T11:43:04.757Z,20.95
2022-12-23T11:44:08.878Z,20.96
2022-12-23T11:45:13.009Z,20.93
2022-12-23T11:46:17.302Z,20.93
2022-12-23T11:47:21.692Z,20.95
2022-12-23T11:48:25.872Z,20.93
2022-12-23T11:49:29.992Z,20.95
2022-12-23T11:50:34.099Z,20.95
2022-12-23T11:51:39.056Z,20.94
2022-12-23T11:52:43.395Z,20.97
2022-12-23T11:53:47.513Z,20.98
2022-12-23T11:54:54.508Z,20.99
2022-12-23T11:55:58.988Z,21.04
2022-12-23T11:57:03.144Z,21.04
2022-12-23T11:58:07.508Z,21.12
2022-12-23T11:59:11.618Z,21.12
2022-12-23T12:00:15.765Z,21.16
2022-12-23T12:01:19.922Z,21.16
2022-12-23T12:02:24.212Z,21.18
2022-12-23T12:03:28.828Z,21.18
2022-12-23T12:04:33.289Z,21.18
2022-12-23T12:05:37.440Z,21.16
2022-12-23T12:06:41.543Z,21.17
2022-12-23T12:07:45.694Z,21.17
2022-12-23T12:08:49.809Z,21.16
2022-12-23T12:09:53.992Z,21.14
2022-12-23T12:10:58.253Z,21.14
2022-12-23T12:12:02.384Z,21.11
2022-12-23T12:13:06.476Z,21.12
2022-12-23T12:14:10.620Z,21.11
2022-12-23T12:15:14.783Z,21.11
2022-12-23T12:16:18.985Z,21.12
2022-12-23T12:17:23.231Z,21.13
2022-12-23T12:18:27.357Z,21.17
2022-12-23T12:19:31.497Z,21.2
2022-12-23T12:20:35.609Z,21.22
2022-12-23T12:21:39.730Z,21.24
2022-12-23T12:22:44.731Z,21.28
2022-12-23T12:23:48.937Z,21.3
2022-12-23T12:25:20.180Z,21.33
2022-12-23T12:26:24.284Z,21.31
2022-12-23T12:27:28.431Z,21.32
2022-12-23T12:28:32.578Z,21.31
2022-12-23T12:29:36.671Z,21.31
2022-12-23T12:30:40.882Z,21.32
2022-12-23T12:31:45.837Z,21.3
2022-12-23T12:32:50.041Z,21.29
2022-12-23T12:33:54.684Z,21.29
2022-12-23T12:34:58.773Z,21.3
2022-12-23T12:36:05.409Z,21.26
2022-12-23T12:37:09.971Z,21.25
2022-12-23T12:38:14.088Z,21.27
2022-12-23T12:39:18.218Z,21.24
2022-12-23T12:40:22.337Z,21.24
2022-12-23T12:41:26.473Z,21.28
2022-12-23T12:42:30.570Z,21.29
2022-12-23T12:43:34.667Z,21.3
2022-12-23T12:44:39.135Z,21.32
2022-12-23T12:45:43.299Z,21.35
2022-12-23T12:46:47.590Z,21.33
2022-12-23T12:47:55.160Z,21.37
2022-12-23T12:49:18.254Z,21.36
2022-12-23T12:50:22.508Z,21.34
2022-12-23T12:51:26.894Z,21.36
2022-12-23T12:52:31.001Z,21.35
2022-12-23T12:53:35.098Z,21.33
2022-12-23T12:54:39.225Z,21.33
2022-12-23T12:55:43.673Z,21.35
2022-12-23T12:56:47.801Z,21.35
2022-12-23T12:57:52.259Z,21.32
2022-12-23T12:58:56.557Z,21.3
2022-12-23T13:00:05.877Z,21.29
